Time;durP1;ratioP1;P1;durP2;ratioP2;P2;SDS_P1;SDS_P2;PMS_P1;PMS_P2;Temp;Humidity;BMP_temperature;BMP_pressure;BME280_temperature;BME280_humidity;BME280_pressure;Samples;Min_cycle;Max_cycle;Signal;HPM_P1;HPM_P2
2023/08/09 00:01:23;;;;;;;4.68;1.35;;;12.10;99.90;;;;;;4950032;29;20044;-83
2023/08/09 00:03:50;;;;;;;4.55;1.35;;;12.10;99.90;;;;;;4934015;29;20083;-83
2023/08/09 00:06:16;;;;;;;2.83;1.50;;;12.10;99.90;;;;;;4949871;29;20501;-83
2023/08/09 00:08:43;;;;;;;4.85;1.55;;;12.00;99.90;;;;;;4949980;29;20048;-83
2023/08/09 00:11:11;;;;;;;7.35;1.63;;;12.00;99.90;;;;;;4949431;29;20505;-83
2023/08/09 00:13:38;;;;;;;4.03;1.40;;;12.00;99.90;;;;;;4950234;29;20044;-83
2023/08/09 00:16:05;;;;;;;5.03;1.70;;;12.00;99.90;;;;;;4949427;29;20044;-83
2023/08/09 00:18:31;;;;;;;4.07;1.42;;;12.00;99.90;;;;;;4949717;29;20043;-83
2023/08/09 00:20:58;;;;;;;8.98;1.55;;;11.90;99.90;;;;;;4933767;29;20040;-83
2023/08/09 00:23:25;;;;;;;5.72;1.60;;;11.90;99.90;;;;;;4949005;29;20040;-83
2023/08/09 00:25:52;;;;;;;5.90;1.60;;;11.90;99.90;;;;;;4949550;29;20044;-83
2023/08/09 00:28:21;;;;;;;5.78;1.33;;;11.90;99.90;;;;;;4949152;29;20485;-84
2023/08/09 00:30:48;;;;;;;2.92;1.15;;;11.90;99.90;;;;;;4949699;29;20051;-83
2023/08/09 00:33:15;;;;;;;7.78;1.50;;;11.90;99.90;;;;;;4949173;29;20071;-83
2023/08/09 00:35:42;;;;;;;5.13;1.52;;;11.80;99.90;;;;;;4949652;29;20156;-83
2023/08/09 00:38:09;;;;;;;5.32;1.48;;;11.80;99.90;;;;;;4949239;29;20043;-83
2023/08/09 00:40:36;;;;;;;5.22;1.50;;;11.80;99.90;;;;;;4949588;29;20040;-83
2023/08/09 00:43:03;;;;;;;5.47;1.75;;;11.80;99.90;;;;;;4949551;29;20040;-83
2023/08/09 00:45:29;;;;;;;5.07;1.60;;;11.80;99.90;;;;;;4949357;29;20044;-83
2023/08/09 00:47:57;;;;;;;3.20;1.58;;;11.80;99.90;;;;;;4933489;29;20040;-83
2023/08/09 00:50:23;;;;;;;5.88;2.00;;;11.80;99.90;;;;;;4949055;29;20138;-83
2023/08/09 00:52:50;;;;;;;12.05;1.95;;;11.70;99.90;;;;;;4949364;29;20131;-83
2023/08/09 00:55:17;;;;;;;5.15;1.70;;;11.70;99.90;;;;;;4933256;29;20136;-83
2023/08/09 00:57:47;;;;;;;6.50;1.83;;;11.70;99.90;;;;;;4949144;29;20107;-83
2023/08/09 01:00:17;;;;;;;6.32;2.00;;;11.70;99.90;;;;;;4948863;29;20108;-82
2023/08/09 01:02:44;;;;;;;7.13;1.77;;;11.60;99.90;;;;;;4965061;29;20127;-83
2023/08/09 01:09:09;;;;;;;6.47;2.00;;;11.60;99.90;;;;;;4950299;29;20560;-85
2023/08/09 01:11:45;;;;;;;4.82;1.90;;;11.60;99.90;;;;;;4948636;29;20075;-84
2023/08/09 01:14:15;;;;;;;6.90;1.90;;;11.50;99.90;;;;;;4948925;29;20130;-84
2023/08/09 01:16:44;;;;;;;7.28;1.85;;;11.50;99.90;;;;;;4948972;29;20047;-84
2023/08/09 01:19:35;;;;;;;6.13;2.03;;;11.50;99.90;;;;;;4948585;29;20501;-84
2023/08/09 01:22:13;;;;;;;6.28;1.80;;;11.50;99.90;;;;;;4948866;29;20051;-84
2023/08/09 01:24:40;;;;;;;5.68;2.00;;;11.50;99.90;;;;;;4948689;29;20040;-85
2023/08/09 01:27:07;;;;;;;4.78;1.90;;;11.50;99.90;;;;;;4948585;29;20493;-84
2023/08/09 01:29:33;;;;;;;6.38;2.15;;;11.50;99.90;;;;;;4933101;29;20051;-84
2023/08/09 01:32:00;;;;;;;5.78;2.17;;;11.50;99.90;;;;;;4933153;29;20048;-84
2023/08/09 01:34:27;;;;;;;5.85;2.13;;;11.40;99.90;;;;;;4932870;29;20047;-84
2023/08/09 01:36:57;;;;;;;9.30;2.22;;;11.40;99.90;;;;;;4952186;29;20188;-84
2023/08/09 01:39:27;;;;;;;6.57;2.20;;;11.40;99.90;;;;;;4968832;29;20047;-85
2023/08/09 01:41:57;;;;;;;4.80;2.00;;;11.40;99.90;;;;;;4952505;29;20040;-84
2023/08/09 01:44:24;;;;;;;4.55;2.20;;;11.30;99.90;;;;;;4952154;29;20052;-84
2023/08/09 01:46:51;;;;;;;6.07;1.70;;;11.30;99.90;;;;;;4952518;29;20084;-84
2023/08/09 01:49:22;;;;;;;4.03;1.70;;;11.30;99.90;;;;;;4952085;29;20142;-84
2023/08/09 01:51:51;;;;;;;3.95;1.42;;;11.30;99.90;;;;;;4952885;29;20051;-84
2023/08/09 01:54:19;;;;;;;4.78;1.52;;;11.30;99.90;;;;;;4952446;29;20075;-84
2023/08/09 01:57:01;;;;;;;4.88;1.67;;;11.30;99.90;;;;;;4952526;29;20063;-85
2023/08/09 01:59:54;;;;;;;6.93;1.70;;;11.30;99.90;;;;;;4952048;29;20047;-85
2023/08/09 02:02:21;;;;;;;6.65;1.55;;;11.30;99.90;;;;;;4952524;29;20087;-84
2023/08/09 02:05:25;;;;;;;7.45;2.03;;;11.30;99.90;;;;;;4966295;23;20075;-84
2023/08/09 02:07:51;;;;;;;3.42;1.70;;;11.20;99.90;;;;;;4958492;29;20047;-84
2023/08/09 02:10:19;;;;;;;7.07;1.75;;;11.20;99.90;;;;;;4943000;29;20049;-84
2023/08/09 02:12:48;;;;;;;5.70;1.50;;;11.20;99.90;;;;;;4974568;29;20039;-84
2023/08/09 02:15:16;;;;;;;4.10;1.33;;;11.20;99.90;;;;;;4958776;29;20039;-84
2023/08/09 02:17:44;;;;;;;4.68;1.40;;;11.20;99.90;;;;;;4958556;29;20047;-84
2023/08/09 02:20:23;;;;;;;5.55;1.90;;;11.20;99.90;;;;;;4974339;29;20031;-83
2023/08/09 02:22:50;;;;;;;6.10;1.52;;;11.20;99.90;;;;;;4958280;29;20042;-83
2023/08/09 02:28:42;;;;;;;2.47;1.30;;;11.10;99.90;;;;;;4989823;29;20446;-84
2023/08/09 02:31:18;;;;;;;6.80;1.55;;;11.10;99.90;;;;;;4958718;29;20039;-83
2023/08/09 02:33:51;;;;;;;4.63;1.48;;;11.10;99.90;;;;;;4958518;29;20186;-84
2023/08/09 02:36:18;;;;;;;3.17;1.67;;;11.10;99.90;;;;;;4958035;29;20035;-84
2023/08/09 02:38:45;;;;;;;5.53;1.67;;;11.10;99.90;;;;;;4942399;29;20046;-84
2023/08/09 02:45:27;;;;;;;11.45;1.70;;;11.00;99.90;;;;;;4990958;28;20492;-84
2023/08/09 02:47:53;;;;;;;5.13;1.60;;;11.00;99.90;;;;;;4942176;29;20055;-84
2023/08/09 02:50:20;;;;;;;5.90;1.50;;;11.00;99.90;;;;;;4942030;29;20046;-84
2023/08/09 02:52:48;;;;;;;4.70;1.50;;;11.00;99.90;;;;;;4958103;29;20576;-84
2023/08/09 02:55:59;;;;;;;4.65;1.55;;;11.00;99.90;;;;;;4942951;29;20043;-84
2023/08/09 02:58:27;;;;;;;4.25;1.48;;;11.00;99.90;;;;;;4973060;29;20050;-84
2023/08/09 03:00:53;;;;;;;6.57;1.85;;;11.00;99.90;;;;;;4957625;29;20039;-84
2023/08/09 03:03:20;;;;;;;3.97;1.50;;;10.90;99.90;;;;;;4938476;29;20039;-84
2023/08/09 03:05:48;;;;;;;4.55;1.30;;;11.00;99.90;;;;;;4938261;29;20091;-84
2023/08/09 03:08:15;;;;;;;6.22;1.58;;;10.90;99.90;;;;;;4970051;29;20127;-84
2023/08/09 03:10:42;;;;;;;8.15;1.80;;;10.90;99.90;;;;;;4938742;29;20142;-84
2023/08/09 03:13:17;;;;;;;;;;;10.90;99.90;;;;;;4941509;29;20090;-84
2023/08/09 03:15:44;;;;;;;5.10;1.70;;;10.90;99.90;;;;;;4954099;29;19961;-84
2023/08/09 03:18:11;;;;;;;5.10;1.60;;;10.90;99.90;;;;;;4938058;29;20043;-84
2023/08/09 03:20:38;;;;;;;7.93;1.75;;;10.90;99.90;;;;;;4937964;29;20050;-84
2023/08/09 03:23:38;;;;;;;4.40;1.90;;;10.90;99.90;;;;;;4938588;29;20112;-84
2023/08/09 03:26:05;;;;;;;8.00;1.80;;;10.90;99.90;;;;;;4953855;29;20032;-84
2023/08/09 03:28:33;;;;;;;7.40;2.00;;;10.90;99.90;;;;;;4938148;29;20131;-83
2023/08/09 03:30:59;;;;;;;8.57;1.90;;;10.90;99.90;;;;;;4953922;29;20103;-83
2023/08/09 03:33:26;;;;;;;5.10;1.90;;;10.90;99.90;;;;;;4953549;29;20044;-83
2023/08/09 03:35:53;;;;;;;9.07;2.03;;;10.90;99.90;;;;;;4938160;29;20382;-83
2023/08/09 03:38:20;;;;;;;6.93;2.20;;;10.80;99.90;;;;;;4937842;29;20485;-83
2023/08/09 03:40:47;;;;;;;12.02;2.75;;;10.80;99.90;;;;;;4937885;29;20047;-83
2023/08/09 03:43:13;;;;;;;4.57;2.08;;;10.80;99.90;;;;;;4937919;29;20050;-82
2023/08/09 03:45:43;;;;;;;5.00;2.08;;;10.80;99.90;;;;;;4953405;29;20066;-83
2023/08/09 03:48:09;;;;;;;5.20;2.40;;;10.80;99.90;;;;;;4937799;29;20044;-83
2023/08/09 03:50:36;;;;;;;23.00;2.85;;;10.80;99.90;;;;;;4937409;29;20044;-83
2023/08/09 03:53:03;;;;;;;5.53;2.17;;;10.80;99.90;;;;;;4937427;29;20422;-83
2023/08/09 03:55:29;;;;;;;5.90;2.00;;;10.80;99.90;;;;;;4937111;29;20390;-83
2023/08/09 03:57:56;;;;;;;4.70;2.33;;;10.70;99.90;;;;;;4936759;29;20413;-82
2023/08/09 04:00:26;;;;;;;5.18;2.17;;;10.80;99.90;;;;;;4937811;29;20067;-83
2023/08/09 04:02:52;;;;;;;8.30;2.30;;;10.70;99.90;;;;;;4937768;29;20040;-83
2023/08/09 04:05:19;;;;;;;4.38;2.00;;;10.80;99.90;;;;;;4937065;29;20511;-83
2023/08/09 04:07:47;;;;;;;4.88;1.92;;;10.70;99.90;;;;;;4937166;29;20051;-83
2023/08/09 04:10:13;;;;;;;7.13;2.22;;;10.80;99.90;;;;;;4937396;29;20051;-82
2023/08/09 04:12:40;;;;;;;6.32;2.05;;;10.80;99.90;;;;;;4937220;29;20493;-83
2023/08/09 04:15:08;;;;;;;4.05;1.98;;;10.80;99.90;;;;;;4937102;29;20079;-83
2023/08/09 04:17:34;;;;;;;5.22;2.05;;;10.70;99.90;;;;;;4952697;29;20043;-82
2023/08/09 04:20:02;;;;;;;4.18;2.10;;;10.70;99.90;;;;;;4937081;29;20039;-83
2023/08/09 04:22:29;;;;;;;6.45;2.42;;;10.70;99.90;;;;;;4937402;29;20040;-82
2023/08/09 04:25:01;;;;;;;7.53;2.35;;;10.70;99.90;;;;;;4953271;29;20047;-82
2023/08/09 04:34:31;;;;;;;3.95;1.88;;;10.70;99.90;;;;;;4967438;29;20039;-83
2023/08/09 04:36:59;;;;;;;8.50;2.22;;;11.10;99.90;;;;;;4935525;29;20044;-84
2023/08/09 04:39:25;;;;;;;6.00;2.40;;;10.70;99.90;;;;;;4935932;29;20051;-84
2023/08/09 04:41:53;;;;;;;7.07;2.22;;;10.70;99.90;;;;;;4935160;29;20609;-84
2023/08/09 04:44:20;;;;;;;4.30;1.90;;;10.80;99.90;;;;;;4935769;29;20135;-84
2023/08/09 04:46:47;;;;;;;4.43;2.28;;;10.80;99.90;;;;;;4935324;29;20525;-84
2023/08/09 04:49:20;;;;;;;6.55;2.03;;;10.70;99.90;;;;;;4951795;29;20531;-84
2023/08/09 04:51:49;;;;;;;9.93;2.30;;;10.80;99.90;;;;;;4919788;29;20501;-84
2023/08/09 04:54:19;;;;;;;6.15;2.10;;;10.50;99.90;;;;;;4935690;29;20839;-84
2023/08/09 04:56:49;;;;;;;8.45;2.42;;;10.80;99.90;;;;;;4935454;29;20050;-84
2023/08/09 04:59:15;;;;;;;5.55;2.13;;;10.80;99.90;;;;;;4935276;29;20524;-84
2023/08/09 05:01:42;;;;;;;7.20;2.20;;;10.80;99.90;;;;;;4952053;29;20051;-84
2023/08/09 05:24:33;;;;;;;6.47;2.53;;;11.20;99.90;;;;;;520330;26;20332;-82
2023/08/09 05:27:03;;;;;;;5.93;2.10;;;11.20;99.90;;;;;;4968567;29;20055;-82
2023/08/09 05:29:33;;;;;;;5.15;2.47;;;11.30;99.90;;;;;;4939328;29;20047;-84
2023/08/09 05:32:00;;;;;;;4.65;2.25;;;11.30;99.90;;;;;;4924584;29;20043;-84
2023/08/09 05:34:26;;;;;;;4.75;2.50;;;11.30;99.90;;;;;;4923914;29;20050;-84
2023/08/09 05:36:53;;;;;;;4.50;2.38;;;11.40;99.90;;;;;;4939303;29;20484;-84
2023/08/09 05:39:20;;;;;;;6.25;2.60;;;11.40;99.90;;;;;;4924009;29;20050;-84
2023/08/09 05:41:47;;;;;;;5.05;2.30;;;11.50;99.90;;;;;;4923862;29;20036;-84
2023/08/09 05:44:13;;;;;;;6.25;1.90;;;11.60;99.90;;;;;;4924144;29;20039;-84
2023/08/09 05:46:43;;;;;;;5.57;2.28;;;11.60;99.90;;;;;;4939404;29;20054;-84
2023/08/09 05:49:10;;;;;;;3.53;1.88;;;11.70;99.90;;;;;;4939503;29;20086;-84
2023/08/09 05:51:37;;;;;;;5.30;2.13;;;11.80;99.90;;;;;;4924085;29;20482;-84
2023/08/09 05:54:03;;;;;;;5.60;1.92;;;11.90;99.90;;;;;;4939159;29;20046;-84
2023/08/09 05:56:30;;;;;;;5.78;2.10;;;11.90;99.90;;;;;;4939441;29;20086;-84
2023/08/09 05:58:57;;;;;;;6.57;2.22;;;12.00;99.90;;;;;;4923535;29;20492;-84
2023/08/09 06:01:23;;;;;;;7.97;2.40;;;12.10;99.90;;;;;;4939500;29;20486;-84
2023/08/09 06:03:50;;;;;;;7.28;3.50;;;12.20;99.90;;;;;;4920521;29;20051;-84
2023/08/09 06:06:17;;;;;;;6.03;3.13;;;12.20;99.90;;;;;;4967685;29;20036;-84
2023/08/09 06:08:44;;;;;;;10.20;3.00;;;12.40;99.90;;;;;;4935880;29;20048;-84
2023/08/09 06:11:11;;;;;;;4.60;2.17;;;12.40;99.90;;;;;;4951758;29;20043;-84
2023/08/09 06:13:38;;;;;;;5.28;1.65;;;12.50;99.90;;;;;;4951604;29;20047;-84
2023/08/09 06:16:23;;;;;;;3.97;1.63;;;12.60;99.90;;;;;;4938672;29;20043;-84
2023/08/09 06:18:49;;;;;;;8.98;1.40;;;12.70;99.90;;;;;;4936070;29;20046;-84
2023/08/09 06:21:16;;;;;;;4.40;1.38;;;12.80;99.90;;;;;;4937035;29;20048;-84
2023/08/09 06:23:43;;;;;;;4.68;1.00;;;12.90;99.90;;;;;;4955115;29;20126;-84
2023/08/09 06:26:09;;;;;;;6.45;1.40;;;13.00;99.90;;;;;;4954664;29;20060;-84
2023/08/09 06:28:37;;;;;;;5.63;1.52;;;13.10;99.90;;;;;;4955067;29;20504;-84
2023/08/09 06:31:04;;;;;;;2.97;1.17;;;13.20;99.90;;;;;;4968028;29;20497;-84
2023/08/09 06:33:34;;;;;;;4.68;1.23;;;13.30;99.90;;;;;;4939088;29;20059;-84
2023/08/09 06:36:01;;;;;;;5.22;1.30;;;13.40;99.90;;;;;;4969401;29;20224;-85
2023/08/09 06:38:28;;;;;;;3.10;1.00;;;13.50;99.90;;;;;;4954695;29;20043;-84
2023/08/09 06:40:54;;;;;;;4.60;1.10;;;13.60;99.90;;;;;;4954751;29;20051;-84
2023/08/09 06:43:21;;;;;;;3.25;1.15;;;13.70;99.90;;;;;;4939153;29;20043;-84
2023/08/09 06:45:48;;;;;;;5.03;1.20;;;13.70;99.90;;;;;;4938761;29;20043;-84
2023/08/09 06:48:15;;;;;;;3.75;0.90;;;13.80;99.90;;;;;;4939025;29;20505;-84
2023/08/09 06:50:45;;;;;;;3.80;1.25;;;13.90;99.90;;;;;;4957043;29;20046;-85
2023/08/09 06:53:13;;;;;;;4.75;1.45;;;14.00;99.90;;;;;;4954934;29;20039;-85
2023/08/09 06:55:39;;;;;;;9.30;1.10;;;14.10;99.90;;;;;;4956079;29;20044;-85
2023/08/09 06:58:06;;;;;;;3.40;1.10;;;14.20;99.90;;;;;;4956108;29;20047;-84
2023/08/09 07:00:33;;;;;;;2.85;0.95;;;14.30;99.90;;;;;;4955943;29;20044;-85
2023/08/09 07:03:00;;;;;;;6.80;1.35;;;14.50;99.90;;;;;;4969537;29;20091;-84
2023/08/09 07:05:26;;;;;;;3.63;0.98;;;14.50;99.90;;;;;;4954373;29;20445;-85
2023/08/09 07:07:54;;;;;;;5.22;1.30;;;14.70;99.90;;;;;;4960260;29;20051;-85
2023/08/09 07:10:21;;;;;;;2.25;0.93;;;14.70;99.90;;;;;;4923213;29;20059;-87
2023/08/09 07:12:48;;;;;;;3.67;1.15;;;14.80;99.90;;;;;;4954141;29;20043;-85
2023/08/09 07:15:15;;;;;;;6.53;1.13;;;14.90;99.90;;;;;;4937797;29;20432;-85
2023/08/09 07:17:42;;;;;;;4.65;1.23;;;15.00;99.90;;;;;;4938176;29;20401;-85
2023/08/09 07:20:11;;;;;;;4.70;0.93;;;15.10;99.90;;;;;;4953755;29;20039;-85
2023/08/09 07:22:39;;;;;;;2.53;1.02;;;15.30;99.90;;;;;;4953762;29;20051;-85
2023/08/09 07:25:09;;;;;;;2.10;0.80;;;15.40;99.90;;;;;;4937839;29;20106;-85
2023/08/09 07:27:47;;;;;;;4.63;1.08;;;15.50;99.90;;;;;;4954035;29;20048;-85
2023/08/09 07:30:15;;;;;;;3.17;1.33;;;15.60;99.90;;;;;;4953585;29;20094;-85
2023/08/09 07:32:43;;;;;;;4.15;1.15;;;15.60;99.90;;;;;;4952875;29;20114;-86
2023/08/09 07:35:10;;;;;;;3.38;0.90;;;15.80;99.90;;;;;;4953669;29;20130;-85
2023/08/09 07:37:42;;;;;;;5.22;1.10;;;15.90;99.90;;;;;;4953833;29;20036;-85
2023/08/09 07:40:12;;;;;;;2.88;1.05;;;16.00;99.90;;;;;;4953414;29;20393;-85
2023/08/09 07:42:39;;;;;;;4.47;0.90;;;16.10;99.90;;;;;;4953909;29;20047;-86
2023/08/09 07:45:07;;;;;;;3.53;0.90;;;16.10;99.90;;;;;;4953765;29;20405;-86
2023/08/09 07:47:34;;;;;;;10.00;1.20;;;16.20;99.90;;;;;;4953669;29;20515;-85
2023/08/09 07:50:01;;;;;;;3.65;0.90;;;16.30;99.90;;;;;;4953274;29;20055;-86
2023/08/09 07:52:27;;;;;;;2.95;1.05;;;16.40;99.90;;;;;;4937818;29;20136;-86
2023/08/09 07:54:54;;;;;;;5.97;1.00;;;16.50;99.90;;;;;;4937990;29;20051;-86
2023/08/09 07:57:21;;;;;;;7.35;0.90;;;16.60;99.90;;;;;;4952829;29;20157;-86
2023/08/09 07:59:47;;;;;;;3.65;1.10;;;16.70;99.90;;;;;;4937806;29;20044;-86
2023/08/09 08:02:14;;;;;;;4.00;1.00;;;16.80;99.90;;;;;;4953212;29;20555;-85
2023/08/09 08:04:41;;;;;;;1.73;0.75;;;16.90;99.90;;;;;;4937364;29;20071;-85
2023/08/09 08:07:09;;;;;;;3.72;0.98;;;17.00;99.90;;;;;;4968723;29;20504;-86
2023/08/09 08:09:41;;;;;;;2.75;1.45;;;17.10;99.90;;;;;;4953165;29;20405;-86
2023/08/09 08:12:08;;;;;;;3.78;1.00;;;17.20;99.90;;;;;;4952658;29;20052;-86
2023/08/09 08:14:38;;;;;;;1.70;0.80;;;17.20;99.90;;;;;;4953120;29;20047;-85
2023/08/09 08:17:05;;;;;;;4.20;0.88;;;17.20;99.90;;;;;;4952753;29;20039;-86
2023/08/09 08:19:32;;;;;;;3.83;0.93;;;17.30;99.90;;;;;;4937363;29;20047;-86
2023/08/09 08:21:59;;;;;;;4.88;1.00;;;17.20;99.90;;;;;;4952958;29;20046;-86
2023/08/09 08:24:26;;;;;;;2.60;0.93;;;17.30;99.90;;;;;;4952864;29;20402;-86
2023/08/09 08:26:54;;;;;;;2.30;0.93;;;17.40;99.90;;;;;;4937005;29;20055;-85
2023/08/09 08:29:22;;;;;;;5.78;1.05;;;17.60;99.90;;;;;;4952679;29;20063;-85
2023/08/09 08:31:50;;;;;;;3.17;1.10;;;17.50;99.90;;;;;;4952674;29;20493;-86
2023/08/09 08:34:21;;;;;;;2.20;1.00;;;17.50;99.90;;;;;;4952479;29;20511;-86
2023/08/09 08:36:49;;;;;;;2.25;0.95;;;17.60;99.90;;;;;;4952419;29;20044;-85
2023/08/09 08:39:19;;;;;;;2.90;1.00;;;17.50;99.90;;;;;;4952528;29;20039;-85
2023/08/09 08:41:49;;;;;;;2.42;0.80;;;17.50;99.90;;;;;;4949886;29;20039;-86
2023/08/09 08:44:15;;;;;;;2.05;1.00;;;17.40;99.90;;;;;;4905622;29;20445;-85
2023/08/09 08:46:42;;;;;;;4.90;0.90;;;17.60;99.90;;;;;;4952087;29;20134;-86
2023/08/09 08:49:17;;;;;;;3.90;0.63;;;17.80;99.90;;;;;;4952586;29;20075;-86
2023/08/09 08:51:49;;;;;;;2.25;0.80;;;17.90;99.90;;;;;;4952204;29;20710;-86
2023/08/09 08:54:16;;;;;;;2.40;0.90;;;18.10;99.90;;;;;;4952236;29;20047;-87
2023/08/09 08:56:43;;;;;;;2.78;0.70;;;18.20;99.90;;;;;;4936681;29;20396;-85
2023/08/09 08:59:11;;;;;;;3.95;0.90;;;18.40;99.90;;;;;;4936040;29;20065;-86
2023/08/09 09:01:37;;;;;;;4.85;0.93;;;18.40;99.90;;;;;;4952242;29;20378;-86
2023/08/09 09:04:04;;;;;;;2.70;0.70;;;18.40;99.90;;;;;;4936359;29;20046;-85
2023/08/09 09:06:33;;;;;;;3.80;0.88;;;18.40;99.90;;;;;;4951425;29;20039;-86
2023/08/09 09:08:59;;;;;;;2.15;0.80;;;18.50;99.90;;;;;;4952156;29;20058;-86
2023/08/09 09:11:27;;;;;;;2.00;0.70;;;18.60;99.90;;;;;;4951986;29;20130;-87
2023/08/09 09:13:53;;;;;;;2.20;0.80;;;18.80;99.90;;;;;;4951836;29;20039;-86
2023/08/09 09:16:20;;;;;;;0.90;0.50;;;18.90;99.90;;;;;;4952024;29;20512;-85
2023/08/09 09:18:48;;;;;;;1.65;0.63;;;19.00;99.90;;;;;;4951801;29;20445;-87
2023/08/09 09:21:16;;;;;;;2.65;0.70;;;19.00;99.90;;;;;;4951830;29;20043;-87
2023/08/09 09:23:44;;;;;;;2.05;0.90;;;18.60;99.90;;;;;;4952370;29;20090;-86
2023/08/09 09:26:14;;;;;;;4.32;0.93;;;18.60;99.90;;;;;;4951586;29;20496;-86
2023/08/09 09:28:44;;;;;;;2.10;0.80;;;18.70;99.90;;;;;;4951591;29;20054;-85
2023/08/09 09:31:13;;;;;;;1.90;0.80;;;18.90;99.90;;;;;;4952161;29;20420;-86
2023/08/09 09:33:44;;;;;;;2.60;0.80;;;19.00;99.90;;;;;;4936482;29;20142;-86
2023/08/09 09:36:12;;;;;;;2.58;0.80;;;18.90;99.90;;;;;;4950851;29;20130;-86
2023/08/09 09:39:17;;;;;;;3.47;0.80;;;18.70;99.90;;;;;;4951808;29;20043;-86
2023/08/09 09:41:49;;;;;;;4.55;1.10;;;18.40;99.90;;;;;;4952432;29;20044;-87
2023/08/09 09:44:23;;;;;;;2.75;0.85;;;18.40;99.90;;;;;;4951775;29;20046;-86
2023/08/09 09:46:54;;;;;;;2.75;0.90;;;18.60;99.90;;;;;;4936175;29;20134;-85
2023/08/09 09:49:20;;;;;;;3.13;1.08;;;18.60;99.90;;;;;;4951245;29;20127;-86
2023/08/09 09:51:54;;;;;;;2.67;0.80;;;18.50;99.90;;;;;;4951976;29;20179;-85
2023/08/09 09:54:22;;;;;;;2.72;1.00;;;18.40;99.90;;;;;;4951533;29;20047;-84
2023/08/09 09:56:49;;;;;;;5.20;1.00;;;18.30;99.90;;;;;;4952594;29;20134;-84
2023/08/09 09:59:15;;;;;;;5.50;1.20;;;18.20;99.90;;;;;;4955049;29;20083;-84
2023/08/09 10:01:44;;;;;;;4.53;1.00;;;18.20;99.90;;;;;;4939396;29;20046;-84
2023/08/09 10:04:13;;;;;;;3.35;1.10;;;18.50;99.90;;;;;;4955030;29;20047;-85
2023/08/09 10:06:42;;;;;;;3.08;1.15;;;18.90;99.90;;;;;;4955244;29;20051;-87
2023/08/09 10:09:10;;;;;;;2.90;0.77;;;19.10;99.90;;;;;;4955554;29;20051;-86
2023/08/09 10:12:03;;;;;;;2.88;0.75;;;19.00;99.90;;;;;;4955030;29;20040;-87
2023/08/09 10:14:31;;;;;;;2.80;0.90;;;19.00;99.90;;;;;;4954983;29;20511;-87
2023/08/09 10:17:00;;;;;;;1.95;0.80;;;18.70;99.90;;;;;;4955474;29;20048;-87
2023/08/09 10:19:30;;;;;;;4.65;1.00;;;18.70;99.90;;;;;;4954881;29;20091;-86
2023/08/09 10:34:06;;;;;;;3.53;0.98;;;18.80;99.90;;;;;;4894236;29;20146;-87
2023/08/09 10:36:33;;;;;;;4.00;1.10;;;19.50;99.90;;;;;;4878438;29;20053;-87
2023/08/09 10:39:19;;;;;;;2.17;0.80;;;19.80;99.90;;;;;;4894536;29;20052;-88
2023/08/09 10:42:11;;;;;;;1.95;0.85;;;20.10;99.90;;;;;;4878928;29;20053;-87
2023/08/09 10:44:49;;;;;;;2.28;0.95;;;20.00;99.90;;;;;;4893660;29;20504;-86
2023/08/09 10:47:19;;;;;;;2.05;0.90;;;19.90;99.90;;;;;;4908535;29;20408;-86
2023/08/09 10:49:48;;;;;;;1.95;0.85;;;19.80;99.90;;;;;;4912026;29;20415;-85
2023/08/09 10:52:39;;;;;;;4.10;0.90;;;19.50;99.90;;;;;;4921280;29;20052;-87
2023/08/09 10:55:15;;;;;;;3.58;1.02;;;19.70;99.90;;;;;;4934936;29;20059;-86
2023/08/09 10:57:43;;;;;;;6.25;0.90;;;19.90;99.90;;;;;;4950764;29;20135;-87
2023/08/09 11:00:12;;;;;;;2.47;1.00;;;20.30;99.90;;;;;;4951080;29;20516;-86
2023/08/09 11:02:57;;;;;;;3.30;0.82;;;20.60;99.90;;;;;;4941832;29;20561;-86
2023/08/09 11:05:29;;;;;;;4.32;1.00;;;20.40;99.90;;;;;;4916334;29;20043;-86
2023/08/09 11:08:09;;;;;;;2.03;0.75;;;20.40;99.90;;;;;;4915733;29;20052;-86
2023/08/09 11:10:39;;;;;;;2.15;0.82;;;20.50;99.90;;;;;;4916069;29;20108;-87
2023/08/09 11:13:14;;;;;;;2.67;1.00;;;20.70;99.90;;;;;;4931993;29;20109;-86
2023/08/09 11:15:50;;;;;;;3.05;0.90;;;20.50;99.90;;;;;;4916243;29;20088;-87
2023/08/09 11:18:16;;;;;;;2.30;0.82;;;20.30;99.90;;;;;;4931599;29;20048;-87
2023/08/09 11:20:44;;;;;;;3.05;0.90;;;20.10;99.90;;;;;;4916305;29;20044;-86
2023/08/09 11:53:34;;;;;;;3.08;0.90;;;19.30;99.90;;;;;;4924070;29;20122;-86
2023/08/09 11:56:40;;;;;;;4.70;0.80;;;19.50;99.90;;;;;;4918199;29;20066;-86
2023/08/09 13:01:59;;;;;;;4.65;0.90;;;20.10;99.90;;;;;;6023891;23;20030;-85
2023/08/09 13:04:29;;;;;;;2.65;1.00;;;20.20;99.90;;;;;;5055071;23;20062;-84
2023/08/09 13:06:56;;;;;;;1.70;0.85;;;20.40;99.90;;;;;;4959046;28;20109;-84
2023/08/09 13:09:23;;;;;;;2.13;0.90;;;20.60;99.90;;;;;;4958614;28;20038;-86
2023/08/09 13:12:10;;;;;;;2.03;0.95;;;20.70;99.90;;;;;;4974210;28;20042;-86
2023/08/09 13:14:39;;;;;;;2.58;0.90;;;20.70;99.90;;;;;;4974515;28;20038;-90
2023/08/09 13:17:07;;;;;;;2.72;1.00;;;20.40;99.90;;;;;;4974251;28;20054;-84
2023/08/09 13:19:34;;;;;;;2.40;1.10;;;20.10;99.90;;;;;;4974286;28;20125;-84
2023/08/09 13:22:01;;;;;;;2.92;1.08;;;20.00;99.90;;;;;;4974272;28;20043;-84
2023/08/09 13:24:28;;;;;;;4.85;0.90;;;19.80;99.90;;;;;;4942865;28;20046;-84
2023/08/09 13:26:55;;;;;;;2.30;0.90;;;19.70;99.90;;;;;;4942624;28;20085;-84
2023/08/09 13:29:22;;;;;;;3.25;1.10;;;20.00;99.90;;;;;;4958638;28;20042;-85
2023/08/09 13:31:48;;;;;;;3.80;1.27;;;20.40;99.90;;;;;;4944319;28;20124;-86
2023/08/09 13:34:15;;;;;;;4.60;1.00;;;20.60;99.90;;;;;;4962999;28;20077;-88
2023/08/09 13:36:42;;;;;;;5.05;1.15;;;20.80;99.90;;;;;;4978431;28;20121;-89
2023/08/09 13:39:09;;;;;;;3.97;0.90;;;20.80;99.90;;;;;;4947468;28;20447;-89
2023/08/09 13:41:36;;;;;;;5.43;1.00;;;21.00;99.90;;;;;;4963015;28;20145;-88
2023/08/09 13:44:03;;;;;;;2.83;0.90;;;21.00;99.90;;;;;;4979180;28;20125;-89
2023/08/09 13:46:32;;;;;;;2.15;0.98;;;21.20;99.90;;;;;;4979142;28;20066;-90
2023/08/09 13:48:59;;;;;;;3.22;1.00;;;21.20;99.90;;;;;;4978562;28;20102;-90
2023/08/09 13:51:26;;;;;;;8.70;1.10;;;21.00;99.90;;;;;;4979192;28;20443;-91
2023/08/09 13:53:54;;;;;;;4.82;0.88;;;20.80;99.90;;;;;;4962711;28;20046;-90
2023/08/09 13:56:21;;;;;;;4.45;1.10;;;20.90;99.90;;;;;;4978910;28;20109;-89
2023/08/09 13:58:48;;;;;;;3.42;1.38;;;21.00;99.90;;;;;;4963193;28;20388;-87
2023/08/09 14:01:15;;;;;;;10.25;1.50;;;21.00;99.90;;;;;;4978791;28;20123;-90
2023/08/09 14:03:43;;;;;;;7.45;1.30;;;20.90;99.90;;;;;;4972986;29;20567;-91
2023/08/09 14:06:09;;;;;;;5.65;1.30;;;20.70;99.90;;;;;;4928537;29;20051;-89
2023/08/09 14:08:36;;;;;;;5.07;1.35;;;21.10;99.90;;;;;;4959507;29;20135;-88
2023/08/09 14:11:03;;;;;;;5.60;1.13;;;21.20;99.90;;;;;;4958939;29;20130;-89
2023/08/09 14:13:30;;;;;;;6.53;1.48;;;21.20;99.90;;;;;;4959676;29;20051;-89
2023/08/09 14:15:57;;;;;;;5.25;1.15;;;21.00;99.90;;;;;;4943350;29;20039;-91
2023/08/09 14:18:26;;;;;;;7.78;1.48;;;20.70;99.90;;;;;;4959350;29;20130;-91
2023/08/09 14:20:53;;;;;;;7.45;1.48;;;20.60;99.90;;;;;;4943338;29;20039;-89
2023/08/09 14:23:20;;;;;;;6.10;1.40;;;20.50;99.90;;;;;;4943161;29;20517;-88
2023/08/09 14:25:53;;;;;;;5.47;1.48;;;20.40;99.90;;;;;;4959072;29;20051;-90
2023/08/09 14:28:21;;;;;;;9.95;2.10;;;20.40;99.90;;;;;;4928193;29;20043;-86
2023/08/09 14:30:49;;;;;;;7.53;1.52;;;20.60;99.90;;;;;;4939690;29;20043;-87
2023/08/09 14:33:15;;;;;;;7.72;1.10;;;20.80;99.90;;;;;;4942979;29;20054;-87
2023/08/09 14:35:42;;;;;;;5.60;1.27;;;20.90;99.90;;;;;;4942736;29;20480;-87
2023/08/09 14:38:09;;;;;;;3.92;1.20;;;20.70;99.90;;;;;;4958258;29;20040;-84
2023/08/09 14:40:36;;;;;;;4.63;1.25;;;20.40;99.90;;;;;;4926851;29;20115;-86
2023/08/09 14:43:03;;;;;;;4.53;1.27;;;20.40;99.90;;;;;;4926135;29;20126;-86
2023/08/09 14:45:30;;;;;;;6.63;1.40;;;20.40;99.90;;;;;;4942314;29;20133;-86
2023/08/09 14:47:57;;;;;;;4.68;1.20;;;20.40;99.90;;;;;;4957762;29;20082;-86
2023/08/09 14:50:23;;;;;;;6.55;1.20;;;20.30;99.90;;;;;;4942103;29;20078;-86
2023/08/09 14:52:51;;;;;;;5.15;1.23;;;20.20;99.90;;;;;;4941272;29;20142;-86
2023/08/09 14:55:18;;;;;;;13.52;1.60;;;20.10;99.90;;;;;;4942357;29;20047;-86
2023/08/09 14:57:45;;;;;;;5.55;1.42;;;20.20;99.90;;;;;;4941670;29;20138;-86
2023/08/09 15:00:13;;;;;;;4.93;1.20;;;20.20;99.90;;;;;;4941927;29;20094;-86
2023/08/09 15:02:41;;;;;;;3.22;1.08;;;20.30;99.90;;;;;;4926692;29;20075;-85
2023/08/09 15:05:14;;;;;;;3.95;1.23;;;20.30;99.90;;;;;;4973582;29;20051;-85
2023/08/09 15:07:41;;;;;;;5.70;1.17;;;20.40;99.90;;;;;;4941704;29;20039;-85
2023/08/09 15:10:08;;;;;;;4.28;1.33;;;20.30;99.90;;;;;;4926481;29;20047;-86
2023/08/09 15:12:35;;;;;;;2.85;1.10;;;20.40;99.90;;;;;;4941554;29;20133;-85
2023/08/09 15:15:02;;;;;;;7.65;1.45;;;20.50;99.90;;;;;;4925847;29;20126;-86
2023/08/09 15:17:28;;;;;;;3.42;1.17;;;20.50;99.90;;;;;;4941095;29;20062;-85
2023/08/09 15:20:06;;;;;;;4.03;1.10;;;20.50;99.90;;;;;;4925653;29;20046;-85
2023/08/09 15:22:33;;;;;;;4.63;1.30;;;20.40;99.90;;;;;;4943399;29;20039;-86